Time;durP1;ratioP1;P1;durP2;ratioP2;P2;SDS_P1;SDS_P2;PMS_P1;PMS_P2;Temp;Humidity;BMP_temperature;BMP_pressure;BME280_temperature;BME280_humidity;BME280_pressure;Samples;Min_cycle;Max_cycle;Signal;HPM_P1;HPM_P2
2020/12/27 00:02:40;;;;;;;2.70;1.50;;;;;;;4.14;81.54;100333.81;6250710;28;20053;-71
2020/12/27 00:05:41;;;;;;;4.47;1.80;;;;;;;4.18;81.60;100348.38;6250159;28;20041;-71
2020/12/27 00:08:43;;;;;;;6.53;1.70;;;;;;;4.14;81.32;100336.41;6249838;28;20136;-73
2020/12/27 00:11:44;;;;;;;2.30;1.60;;;;;;;4.14;81.28;100331.22;6250376;28;20061;-73
2020/12/27 00:14:45;;;;;;;2.42;1.42;;;;;;;4.12;81.99;100314.81;6250470;28;20045;-73
2020/12/27 00:17:46;;;;;;;3.38;1.50;;;;;;;4.01;82.30;100294.38;6249785;28;20056;-73
2020/12/27 00:20:49;;;;;;;5.15;1.20;;;;;;;4.26;81.16;100273.56;6249754;28;20050;-73
2020/12/27 00:23:51;;;;;;;1.80;1.00;;;;;;;4.25;81.00;100271.88;6249723;28;20518;-73
2020/12/27 00:26:52;;;;;;;3.28;1.58;;;;;;;4.25;80.70;100254.50;6249641;28;20081;-73
2020/12/27 00:29:53;;;;;;;3.97;1.27;;;;;;;4.35;80.85;100255.03;6249588;28;20046;-72
2020/12/27 00:32:54;;;;;;;3.25;1.48;;;;;;;4.20;81.42;100246.03;6249904;28;20422;-73
2020/12/27 00:35:54;;;;;;;4.72;1.40;;;;;;;4.15;81.23;100237.53;6249414;28;20049;-72
2020/12/27 00:38:56;;;;;;;1.30;1.20;;;;;;;4.22;81.46;100235.56;6249315;28;20080;-73
2020/12/27 00:42:01;;;;;;;3.17;1.30;;;;;;;4.30;81.02;100217.94;6249925;28;20057;-74
2020/12/27 00:45:02;;;;;;;3.35;1.42;;;;;;;4.23;81.10;100203.47;6249510;28;20045;-73
2020/12/27 00:48:03;;;;;;;2.75;0.98;;;;;;;4.40;81.19;100201.09;6301151;23;20049;-72
2020/12/27 00:51:04;;;;;;;2.25;1.35;;;;;;;4.32;80.24;100206.59;6247669;28;20580;-73
2020/12/27 00:54:05;;;;;;;1.80;0.90;;;;;;;4.47;79.93;100186.94;6224964;28;20108;-73
2020/12/27 00:57:06;;;;;;;5.07;1.00;;;;;;;4.40;79.89;100182.03;6240254;28;20107;-72
2020/12/27 01:00:07;;;;;;;3.13;1.00;;;;;;;4.48;79.89;100173.03;6248893;28;20045;-73
2020/12/27 01:03:08;;;;;;;3.20;1.00;;;;;;;4.31;79.54;100160.69;6249361;28;20127;-72
2020/12/27 01:06:10;;;;;;;1.85;0.90;;;;;;;4.35;78.73;100170.94;6247749;28;20731;-73
2020/12/27 01:09:12;;;;;;;3.05;1.00;;;;;;;4.40;80.10;100156.00;6248650;28;20041;-72
2020/12/27 01:12:13;;;;;;;1.55;0.98;;;;;;;4.54;78.68;100146.81;6249284;28;20049;-73
2020/12/27 01:15:14;;;;;;;1.60;0.90;;;;;;;4.37;78.43;100138.78;6249012;28;20414;-73
2020/12/27 01:18:14;;;;;;;1.95;0.90;;;;;;;4.42;78.89;100123.00;6248475;28;20103;-73
2020/12/27 01:21:25;;;;;;;1.27;0.80;;;;;;;4.40;78.70;100127.41;6248608;28;20060;-73
2020/12/27 01:24:27;;;;;;;1.48;0.77;;;;;;;4.49;78.82;100111.44;6248715;28;20421;-72
2020/12/27 01:27:28;;;;;;;7.05;1.50;;;;;;;4.51;78.37;100105.28;6248484;28;20049;-72
2020/12/27 01:30:29;;;;;;;1.35;1.00;;;;;;;4.25;79.20;100085.47;6248197;28;20049;-72
2020/12/27 01:33:29;;;;;;;4.43;1.23;;;;;;;4.26;79.88;100099.31;6248222;28;20115;-72
2020/12/27 01:36:32;;;;;;;0.98;0.82;;;;;;;4.26;79.49;100094.09;6248092;28;20057;-73
2020/12/27 01:39:33;;;;;;;1.52;0.90;;;;;;;4.19;79.83;100103.06;6248202;28;20111;-72
2020/12/27 01:42:34;;;;;;;2.25;0.88;;;;;;;4.19;79.36;100085.72;6248366;28;20061;-73
2020/12/27 01:45:35;;;;;;;5.28;1.23;;;;;;;4.28;79.23;100076.72;6248532;28;20053;-73
2020/12/27 01:48:36;;;;;;;2.15;0.90;;;;;;;4.27;79.74;100068.06;6247384;28;20050;-73
2020/12/27 01:51:38;;;;;;;1.80;0.98;;;;;;;4.25;79.32;100062.06;6248080;28;20102;-74
2020/12/27 01:54:40;;;;;;;1.08;0.82;;;;;;;4.13;79.74;100056.47;6248156;28;20502;-73
2020/12/27 01:58:17;;;;;;;1.50;1.40;;;;;;;3.96;80.54;100055.38;6247660;28;20494;-73
2020/12/27 02:01:18;;;;;;;1.98;0.90;;;;;;;4.19;78.79;100049.28;6247419;28;20053;-73
2020/12/27 02:04:19;;;;;;;3.20;1.15;;;;;;;4.12;79.07;100040.03;6247573;28;20088;-73
2020/12/27 02:07:22;;;;;;;1.67;1.00;;;;;;;4.05;79.21;100016.03;6247263;28;20053;-73
2020/12/27 02:10:24;;;;;;;2.75;1.08;;;;;;;4.22;79.00;99991.09;6247225;28;20046;-73
2020/12/27 02:13:24;;;;;;;1.45;1.00;;;;;;;4.10;78.40;99982.06;6247651;28;20046;-73
2020/12/27 02:16:27;;;;;;;3.85;0.98;;;;;;;4.06;78.80;99980.47;6247200;28;20051;-73
2020/12/27 02:19:28;;;;;;;1.13;0.90;;;;;;;4.02;78.17;99965.91;6246065;28;20410;-73
2020/12/27 02:22:28;;;;;;;1.02;0.93;;;;;;;3.89;78.07;99954.28;6247364;28;20049;-73
2020/12/27 02:25:30;;;;;;;1.52;1.08;;;;;;;3.92;78.64;99949.81;6247300;28;20139;-73
2020/12/27 02:28:32;;;;;;;1.45;0.90;;;;;;;3.98;78.58;99953.91;6246831;28;20508;-73
2020/12/27 02:31:32;;;;;;;0.90;0.70;;;;;;;3.90;79.21;99954.22;6246751;28;20049;-73
2020/12/27 02:34:33;;;;;;;2.42;0.95;;;;;;;3.91;78.43;99944.69;6246894;28;20050;-73
2020/12/27 02:37:34;;;;;;;2.58;1.15;;;;;;;3.93;77.03;99922.91;6246669;28;20077;-73
2020/12/27 02:40:36;;;;;;;2.35;0.90;;;;;;;3.91;77.49;99921.28;6246760;28;20584;-73
2020/12/27 02:43:36;;;;;;;2.72;1.25;;;;;;;3.83;77.45;99907.75;6247042;28;20049;-73
2020/12/27 02:46:37;;;;;;;3.35;1.10;;;;;;;3.72;77.46;99906.38;6246677;28;20057;-73
2020/12/27 02:49:38;;;;;;;3.05;1.42;;;;;;;3.80;78.19;99899.16;6246331;28;20046;-72
2020/12/27 02:52:39;;;;;;;1.50;1.10;;;;;;;3.84;77.78;99892.09;6247100;28;20522;-72
2020/12/27 02:55:41;;;;;;;1.65;1.05;;;;;;;3.74;77.96;99888.16;6246659;28;20075;-72
2020/12/27 02:58:43;;;;;;;3.15;1.60;;;;;;;3.65;78.48;99885.91;6238539;28;20037;-72
2020/12/27 03:01:44;;;;;;;3.42;1.30;;;;;;;3.53;78.91;99884.63;6240179;28;20103;-73
2020/12/27 03:04:44;;;;;;;2.55;1.55;;;;;;;3.58;78.31;99880.09;6246303;28;20049;-73
2020/12/27 03:07:45;;;;;;;3.45;1.38;;;;;;;3.50;79.02;99874.38;6245779;28;20387;-73
2020/12/27 03:10:47;;;;;;;2.03;1.20;;;;;;;3.45;78.73;99855.50;6246028;28;20045;-73
2020/12/27 03:13:48;;;;;;;3.95;1.35;;;;;;;3.59;77.72;99835.06;6246619;28;20103;-73
2020/12/27 03:16:49;;;;;;;2.47;1.58;;;;;;;3.43;77.80;99820.97;6245988;28;20080;-73
2020/12/27 03:19:50;;;;;;;3.33;1.60;;;;;;;3.23;79.06;99800.97;6246112;28;20050;-73
2020/12/27 03:22:51;;;;;;;2.55;1.30;;;;;;;3.26;78.43;99790.44;6246388;28;20053;-72
2020/12/27 03:25:52;;;;;;;4.13;1.00;;;;;;;3.28;78.02;99780.88;6246316;28;20050;-72
2020/12/27 03:28:53;;;;;;;4.38;1.30;;;;;;;3.25;78.44;99770.59;6246644;28;20052;-72
2020/12/27 03:31:54;;;;;;;3.08;1.35;;;;;;;3.13;78.75;99766.72;6251604;28;20054;-72
2020/12/27 03:34:55;;;;;;;6.47;1.70;;;;;;;3.16;78.80;99755.38;6251062;28;20049;-72
2020/12/27 03:37:56;;;;;;;3.55;1.30;;;;;;;3.19;78.06;99743.13;6250393;28;20057;-72
2020/12/27 03:40:57;;;;;;;5.45;1.60;;;;;;;3.19;78.33;99726.72;6251021;28;20103;-72
2020/12/27 03:43:58;;;;;;;1.80;1.25;;;;;;;3.19;77.52;99716.31;6250969;28;20045;-72
2020/12/27 03:46:59;;;;;;;2.65;1.52;;;;;;;3.12;77.64;99709.69;6250814;28;20061;-73
2020/12/27 03:50:00;;;;;;;2.17;1.15;;;;;;;3.15;78.14;99701.78;6250345;28;20049;-72
2020/12/27 03:53:01;;;;;;;2.50;1.35;;;;;;;3.17;76.71;99692.16;6251202;28;20049;-72
2020/12/27 03:56:03;;;;;;;3.60;1.77;;;;;;;3.16;77.04;99680.94;6250445;28;20050;-72
2020/12/27 03:59:03;;;;;;;2.13;1.17;;;;;;;3.05;77.96;99678.78;6250544;28;20107;-73
2020/12/27 04:02:04;;;;;;;3.72;1.48;;;;;;;3.13;78.19;99662.88;6250711;28;20057;-72
2020/12/27 04:05:05;;;;;;;6.07;2.65;;;;;;;3.01;77.77;99656.44;6250543;28;20132;-72
2020/12/27 04:08:06;;;;;;;3.08;1.45;;;;;;;2.99;77.54;99637.47;6250244;28;20060;-72
2020/12/27 04:11:08;;;;;;;3.50;1.73;;;;;;;3.05;77.97;99642.44;6250132;28;20550;-72
2020/12/27 04:14:09;;;;;;;3.58;1.75;;;;;;;2.98;77.81;99635.81;6250585;28;20491;-72
2020/12/27 04:17:10;;;;;;;3.15;1.65;;;;;;;3.12;77.34;99616.22;6249769;28;20049;-72
2020/12/27 04:20:11;;;;;;;4.03;1.65;;;;;;;3.06;77.03;99609.53;6248113;28;20046;-72
2020/12/27 04:23:11;;;;;;;3.95;1.77;;;;;;;3.16;77.06;99617.78;6250272;28;20050;-72
2020/12/27 04:26:14;;;;;;;3.25;1.77;;;;;;;3.11;76.70;99599.81;6249728;28;20060;-72
2020/12/27 04:29:15;;;;;;;5.53;2.13;;;;;;;3.09;76.68;99588.66;6249578;28;20046;-72
2020/12/27 04:32:16;;;;;;;7.80;1.75;;;;;;;3.10;76.25;99594.69;6249558;28;20049;-72
2020/12/27 04:35:17;;;;;;;2.70;1.60;;;;;;;3.05;76.46;99595.72;6250265;28;20049;-72
2020/12/27 04:38:18;;;;;;;4.53;2.05;;;;;;;3.05;77.37;99579.31;6249222;28;20497;-72
2020/12/27 04:41:19;;;;;;;5.40;1.70;;;;;;;3.00;77.42;99584.69;6248424;28;20049;-72
2020/12/27 04:44:22;;;;;;;2.80;1.77;;;;;;;3.07;77.52;99574.06;6249700;28;20049;-72
2020/12/27 04:47:24;;;;;;;1.88;1.40;;;;;;;3.04;78.50;99568.09;6249483;28;20045;-72
2020/12/27 04:50:27;;;;;;;5.05;1.80;;;;;;;3.15;77.64;99554.66;6249159;28;20053;-72
2020/12/27 04:53:28;;;;;;;7.03;2.00;;;;;;;3.14;77.21;99555.56;6249431;28;20060;-72
2020/12/27 04:56:29;;;;;;;2.08;1.45;;;;;;;3.04;77.60;99539.53;6249304;28;20053;-72
2020/12/27 04:59:30;;;;;;;5.13;2.10;;;;;;;3.06;78.22;99536.88;6248958;28;20053;-72
2020/12/27 05:02:31;;;;;;;2.58;1.77;;;;;;;3.01;78.17;99515.47;6249150;28;20060;-72
2020/12/27 05:05:32;;;;;;;3.97;1.58;;;;;;;3.19;77.50;99506.06;6249342;28;20077;-72
2020/12/27 05:08:33;;;;;;;3.20;1.52;;;;;;;3.00;77.50;99495.63;6248735;28;20046;-72
2020/12/27 05:11:34;;;;;;;3.63;1.73;;;;;;;3.13;77.10;99490.72;6248742;28;20049;-72
2020/12/27 05:14:36;;;;;;;6.38;2.00;;;;;;;3.05;77.73;99488.47;6249223;28;20050;-72
2020/12/27 05:17:36;;;;;;;3.80;1.60;;;;;;;3.05;77.53;99472.91;6248728;28;20045;-72
2020/12/27 05:20:40;;;;;;;2.40;1.70;;;;;;;3.00;77.35;99454.94;6248469;28;20487;-72
2020/12/27 05:23:43;;;;;;;3.83;1.90;;;;;;;3.07;77.67;99442.53;6249028;28;20053;-72
2020/12/27 05:26:46;;;;;;;3.72;1.77;;;;;;;3.09;76.31;99422.56;6248304;28;20054;-72
2020/12/27 05:29:47;;;;;;;3.80;1.83;;;;;;;2.91;77.55;99405.19;6248269;28;20413;-72
2020/12/27 05:32:48;;;;;;;3.10;1.65;;;;;;;2.96;77.70;99393.69;6248186;28;20045;-72
2020/12/27 05:36:00;;;;;;;3.00;1.40;;;;;;;2.90;77.36;99387.94;6248837;28;20054;-72
2020/12/27 05:39:01;;;;;;;2.88;1.80;;;;;;;2.93;78.02;99386.03;6247873;28;20057;-72
2020/12/27 05:42:04;;;;;;;3.58;1.83;;;;;;;3.02;77.04;99384.81;6248679;28;20045;-72
2020/12/27 05:45:12;;;;;;;3.97;1.83;;;;;;;2.88;76.78;99362.06;6248184;28;20056;-72
2020/12/27 05:48:13;;;;;;;2.20;1.75;;;;;;;2.95;77.74;99373.00;6247989;28;20049;-72
2020/12/27 05:51:14;;;;;;;2.90;1.80;;;;;;;2.93;76.91;99364.44;6247684;28;20617;-72
2020/12/27 05:54:26;;;;;;;2.55;1.42;;;;;;;3.04;77.08;99350.09;6248209;28;20052;-72
2020/12/27 05:57:28;;;;;;;1.88;1.30;;;;;;;3.15;77.22;99338.38;6247678;28;20053;-72
2020/12/27 06:00:30;;;;;;;4.78;1.90;;;;;;;3.02;77.67;99336.34;6247693;28;20049;-72
2020/12/27 06:03:30;;;;;;;2.83;1.40;;;;;;;2.97;76.92;99327.06;6247521;28;20071;-72
2020/12/27 06:07:14;;;;;;;3.80;1.60;;;;;;;2.96;77.39;99307.25;6247678;28;20050;-72
2020/12/27 06:10:19;;;;;;;3.75;1.50;;;;;;;3.01;77.24;99303.53;6246933;28;20517;-72
2020/12/27 06:14:05;;;;;;;3.15;1.50;;;;;;;3.10;76.56;99309.22;6247622;28;20127;-72
2020/12/27 06:17:16;;;;;;;1.70;1.23;;;;;;;3.04;76.06;99285.22;6247327;28;20056;-72
2020/12/27 06:20:19;;;;;;;5.18;1.50;;;;;;;3.12;76.98;99282.25;6237578;28;20042;-72
2020/12/27 06:23:25;;;;;;;2.85;1.25;;;;;;;3.19;76.69;99272.44;6233095;28;20056;-72
2020/12/27 06:26:30;;;;;;;2.85;1.17;;;;;;;3.14;75.96;99256.25;6235021;28;20539;-72
2020/12/27 06:29:35;;;;;;;5.53;1.60;;;;;;;3.16;76.53;99257.84;6243393;28;20454;-72
2020/12/27 06:32:42;;;;;;;1.38;1.25;;;;;;;3.05;77.02;99241.94;6234336;28;20407;-72
2020/12/27 06:35:45;;;;;;;5.20;1.50;;;;;;;3.14;76.29;99228.53;6232454;28;20076;-72
2020/12/27 06:38:46;;;;;;;2.65;1.27;;;;;;;3.22;76.84;99212.56;6231321;28;20074;-73
2020/12/27 06:42:07;;;;;;;2.53;1.20;;;;;;;3.13;76.36;99208.66;6234442;28;20053;-73
2020/12/27 06:45:27;;;;;;;1.52;1.23;;;;;;;3.15;76.96;99204.25;6231878;28;20403;-73
2020/12/27 06:48:33;;;;;;;;;;;;;;;3.30;75.93;99193.13;6232756;28;20042;-71
2020/12/27 06:51:41;;;;;;;2.17;1.40;;;;;;;3.16;76.61;99199.91;6233801;28;19922;-73
2020/12/27 06:54:42;;;;;;;3.78;1.23;;;;;;;3.34;75.88;99186.03;6227194;28;20050;-73
2020/12/27 06:57:44;;;;;;;2.55;1.10;;;;;;;3.34;76.05;99180.00;6243428;23;20417;-72
2020/12/27 07:00:45;;;;;;;2.20;1.00;;;;;;;3.38;75.76;99161.59;6221446;28;20056;-71
2020/12/27 07:03:47;;;;;;;2.78;1.10;;;;;;;3.37;76.22;99166.88;6221500;28;20057;-71
2020/12/27 07:06:49;;;;;;;2.25;1.10;;;;;;;3.38;75.81;99153.81;6221809;28;20050;-72
2020/12/27 07:09:51;;;;;;;2.28;0.90;;;;;;;3.45;75.61;99142.22;6221558;28;20490;-72
2020/12/27 07:12:52;;;;;;;2.17;1.35;;;;;;;3.49;76.14;99133.31;6221894;28;20108;-73
2020/12/27 07:15:55;;;;;;;1.67;0.95;;;;;;;3.49;75.98;99120.34;6221573;28;20415;-72
2020/12/27 07:18:59;;;;;;;2.13;1.00;;;;;;;3.42;75.28;99119.00;6220422;28;20042;-72
2020/12/27 07:22:04;;;;;;;2.65;0.93;;;;;;;3.50;75.27;99111.66;6221808;28;20453;-72
2020/12/27 07:25:04;;;;;;;1.40;1.00;;;;;;;3.49;75.89;99107.34;6221883;28;20054;-72
2020/12/27 07:28:06;;;;;;;3.75;1.10;;;;;;;3.51;75.48;99087.38;6221566;28;20522;-73
2020/12/27 07:31:06;;;;;;;3.80;1.40;;;;;;;3.44;75.88;99095.53;6221029;28;20042;-72
2020/12/27 07:34:09;;;;;;;1.98;1.02;;;;;;;3.46;76.61;99078.97;6221827;28;20053;-72
2020/12/27 07:37:10;;;;;;;1.40;1.08;;;;;;;3.40;76.78;99057.66;6221420;28;20046;-73
2020/12/27 07:40:11;;;;;;;2.55;1.20;;;;;;;3.45;76.94;99051.34;6221350;28;20560;-73
2020/12/27 07:43:12;;;;;;;2.47;1.40;;;;;;;3.41;76.66;99046.38;6221676;28;20050;-72
2020/12/27 07:46:14;;;;;;;3.53;1.13;;;;;;;3.49;75.92;99032.06;6221236;28;20140;-72
2020/12/27 07:49:16;;;;;;;2.28;1.10;;;;;;;3.41;76.89;99026.44;6221198;28;20049;-72
2020/12/27 07:52:17;;;;;;;4.15;1.23;;;;;;;3.41;77.25;99026.44;6221568;28;20053;-71
2020/12/27 07:55:37;;;;;;;3.13;1.25;;;;;;;3.39;76.69;99011.84;6221430;28;20528;-72
2020/12/27 07:58:38;;;;;;;1.88;1.08;;;;;;;3.40;76.51;99013.53;6220824;28;20400;-72
2020/12/27 08:01:39;;;;;;;5.97;2.53;;;;;;;3.44;76.43;99010.69;6221241;28;20057;-71
2020/12/27 08:04:42;;;;;;;3.90;2.10;;;;;;;3.31;77.54;98997.50;6221449;28;20046;-72
2020/12/27 08:07:42;;;;;;;4.25;1.65;;;;;;;3.35;77.17;99003.38;6221150;28;20061;-72
2020/12/27 08:10:43;;;;;;;2.42;1.60;;;;;;;3.23;76.62;99004.03;6220926;28;20050;-72
2020/12/27 08:13:50;;;;;;;3.92;1.98;;;;;;;3.23;76.81;98997.06;6221412;28;20081;-72
2020/12/27 08:16:51;;;;;;;3.00;1.90;;;;;;;3.44;75.95;98994.28;6224822;28;20053;-71
2020/12/27 08:20:01;;;;;;;6.13;2.40;;;;;;;3.30;75.98;98972.47;6225647;28;20050;-72
2020/12/27 08:23:06;;;;;;;3.78;1.95;;;;;;;3.39;76.24;98972.91;6225738;28;20136;-71
2020/12/27 08:26:09;;;;;;;3.33;2.03;;;;;;;3.36;76.64;98976.50;6225479;28;20104;-72
2020/12/27 08:29:12;;;;;;;3.20;2.00;;;;;;;3.41;75.83;98969.31;6224811;28;20057;-71
2020/12/27 08:32:12;;;;;;;4.43;2.30;;;;;;;3.32;76.79;98962.00;6225654;28;20053;-71
2020/12/27 08:35:24;;;;;;;4.25;1.98;;;;;;;3.41;76.14;98958.09;6225408;28;20511;-71
2020/12/27 08:38:35;;;;;;;3.40;2.25;;;;;;;3.36;76.23;98966.13;6225282;28;20042;-71
2020/12/27 08:41:39;;;;;;;6.30;2.45;;;;;;;3.42;76.99;98951.97;6225291;28;20422;-70
2020/12/27 08:44:55;;;;;;;3.40;2.20;;;;;;;3.38;75.92;98960.84;6225394;28;20050;-71
2020/12/27 08:48:10;;;;;;;4.90;2.20;;;;;;;3.49;74.89;98941.16;6224749;28;20053;-71
2020/12/27 08:51:13;;;;;;;2.75;1.77;;;;;;;3.43;75.89;98925.91;6224915;28;20057;-72
2020/12/27 08:54:17;;;;;;;3.85;2.13;;;;;;;3.39;75.02;98926.16;6219767;28;20598;-72
2020/12/27 08:57:18;;;;;;;4.97;2.28;;;;;;;3.40;74.62;98907.06;6224407;28;20060;-72
2020/12/27 09:00:20;;;;;;;4.55;2.17;;;;;;;3.24;75.58;98887.13;6224011;28;20046;-72
2020/12/27 09:03:20;;;;;;;4.88;2.28;;;;;;;3.39;74.86;98876.84;6224984;28;20050;-72
2020/12/27 09:06:22;;;;;;;3.88;2.00;;;;;;;3.37;74.33;98857.94;6224421;28;20046;-72
2020/12/27 09:09:24;;;;;;;3.40;1.92;;;;;;;3.37;74.33;98857.94;6224116;28;20041;-71
2020/12/27 09:12:24;;;;;;;5.28;1.80;;;;;;;3.22;75.83;98852.63;6224511;28;20057;-72
2020/12/27 09:15:27;;;;;;;3.72;2.13;;;;;;;3.34;74.25;98860.69;6224402;28;20053;-71
2020/12/27 09:18:30;;;;;;;6.95;2.33;;;;;;;3.29;74.06;98847.94;6224315;28;20064;-72
2020/12/27 09:21:32;;;;;;;5.28;2.17;;;;;;;3.21;74.51;98843.16;6223836;28;20119;-71
2020/12/27 09:24:33;;;;;;;3.20;1.77;;;;;;;3.29;75.18;98825.41;6224300;28;20414;-71
2020/12/27 09:27:34;;;;;;;3.33;1.70;;;;;;;3.33;75.05;98831.28;6223062;28;20054;-71
2020/12/27 09:30:35;;;;;;;4.90;2.25;;;;;;;3.31;75.36;98830.50;6223361;28;20073;-71
2020/12/27 09:33:39;;;;;;;4.47;2.08;;;;;;;3.33;74.31;98827.84;6224143;28;20054;-72
2020/12/27 09:36:41;;;;;;;3.08;1.55;;;;;;;3.24;74.93;98817.03;6223644;28;20112;-73
2020/12/27 09:39:42;;;;;;;2.50;1.55;;;;;;;3.35;74.50;98813.03;6223650;28;20561;-72
2020/12/27 09:42:43;;;;;;;2.47;1.33;;;;;;;3.36;74.55;98814.69;6223596;28;20050;-72
2020/12/27 09:45:44;;;;;;;5.65;1.67;;;;;;;3.33;75.38;98810.53;6223802;28;20066;-71
2020/12/27 09:48:45;;;;;;;2.55;1.95;;;;;;;3.37;74.82;98787.84;6222724;28;20054;-72
2020/12/27 09:52:00;;;;;;;3.60;1.75;;;;;;;3.42;74.90;98789.25;6223784;28;20057;-71
2020/12/27 09:55:01;;;;;;;2.13;1.40;;;;;;;3.49;74.81;98763.75;6223377;28;20491;-72
2020/12/27 09:58:02;;;;;;;3.65;1.70;;;;;;;3.57;73.44;98758.97;6222676;28;20092;-71
2020/12/27 10:01:03;;;;;;;2.38;1.33;;;;;;;3.61;74.19;98750.09;6222953;28;20046;-72
2020/12/27 10:04:04;;;;;;;4.82;1.63;;;;;;;3.58;74.69;98759.81;6223505;28;20053;-71
2020/12/27 10:07:06;;;;;;;2.17;1.60;;;;;;;3.66;73.36;98718.66;6222836;28;20061;-71
2020/12/27 10:10:08;;;;;;;2.40;1.40;;;;;;;3.65;72.84;98725.63;6223032;28;20048;-74
2020/12/27 10:13:09;;;;;;;2.25;1.40;;;;;;;3.70;73.62;98717.56;6223150;28;20049;-72
2020/12/27 10:16:09;;;;;;;3.53;1.58;;;;;;;3.54;73.15;98715.00;6222722;28;20104;-73
2020/12/27 10:19:10;;;;;;;2.70;1.50;;;;;;;3.73;72.38;98709.59;6218486;28;20041;-73
2020/12/27 10:22:12;;;;;;;2.28;1.48;;;;;;;3.71;73.92;98696.69;6231979;28;20132;-72
2020/12/27 10:25:13;;;;;;;5.45;1.75;;;;;;;3.70;72.87;98678.59;6222227;28;20057;-72
2020/12/27 10:28:14;;;;;;;5.03;1.50;;;;;;;3.75;73.32;98660.97;6222102;28;20056;-72
2020/12/27 10:31:15;;;;;;;2.20;1.52;;;;;;;3.66;73.07;98658.91;6222170;28;20050;-72
2020/12/27 10:34:16;;;;;;;3.25;1.42;;;;;;;3.83;73.08;98647.53;6222415;28;20057;-71
2020/12/27 10:37:18;;;;;;;3.03;1.50;;;;;;;3.65;73.96;98649.47;6222205;28;20073;-72
2020/12/27 10:40:19;;;;;;;1.92;1.55;;;;;;;3.75;74.33;98648.00;6218898;28;20046;-71
2020/12/27 10:43:19;;;;;;;3.65;1.90;;;;;;;3.66;75.10;98643.34;6238526;28;20052;-72
2020/12/27 10:46:20;;;;;;;6.82;2.00;;;;;;;3.59;76.03;98632.50;6246472;28;20502;-73
2020/12/27 10:49:23;;;;;;;3.60;1.98;;;;;;;3.49;76.74;98642.53;6229505;28;20050;-72
2020/12/27 10:52:25;;;;;;;3.53;1.60;;;;;;;3.46;77.17;98629.78;6222394;28;20061;-72
2020/12/27 10:55:25;;;;;;;2.22;1.60;;;;;;;3.58;78.28;98617.81;6221960;28;20072;-71
2020/12/27 10:58:26;;;;;;;3.15;1.65;;;;;;;3.53;78.48;98618.06;6222058;28;20050;-72
2020/12/27 11:01:27;;;;;;;4.28;2.33;;;;;;;3.53;78.29;98607.69;6221716;28;20499;-71
2020/12/27 11:04:28;;;;;;;2.83;1.48;;;;;;;3.48;79.06;98603.69;6222435;28;20060;-71
2020/12/27 11:07:30;;;;;;;4.28;2.05;;;;;;;3.38;78.50;98597.38;6221272;28;20453;-73
2020/12/27 11:10:30;;;;;;;4.80;2.00;;;;;;;3.42;78.84;98583.31;6221554;28;20054;-74
2020/12/27 11:13:31;;;;;;;4.53;2.17;;;;;;;3.36;78.68;98581.03;6221945;28;20059;-72
2020/12/27 11:16:32;;;;;;;3.40;1.92;;;;;;;3.46;78.39;98574.41;6221591;28;20049;-72
2020/12/27 11:19:33;;;;;;;3.22;1.92;;;;;;;3.43;78.79;98549.44;6221537;28;20053;-72
2020/12/27 11:22:36;;;;;;;2.97;1.90;;;;;;;3.45;78.40;98539.81;6221670;28;20478;-73
2020/12/27 11:25:37;;;;;;;7.20;2.28;;;;;;;3.49;78.88;98524.88;6221722;28;20049;-72
2020/12/27 11:28:38;;;;;;;3.20;1.92;;;;;;;3.43;78.68;98512.28;6221042;28;20058;-72
2020/12/27 11:31:39;;;;;;;3.92;1.90;;;;;;;3.45;77.14;98500.03;6221763;28;20046;-74
2020/12/27 11:34:40;;;;;;;4.65;1.63;;;;;;;3.46;78.26;98488.72;6221409;28;20054;-72
2020/12/27 11:37:41;;;;;;;3.05;1.60;;;;;;;3.49;77.20;98478.97;6221649;28;20057;-73
2020/12/27 11:40:42;;;;;;;4.45;1.88;;;;;;;3.56;77.10;98472.50;6221137;28;20049;-72
2020/12/27 11:43:43;;;;;;;3.75;1.70;;;;;;;3.59;76.95;98463.69;6221441;28;20503;-73
2020/12/27 11:46:44;;;;;;;2.97;1.70;;;;;;;3.53;77.23;98470.06;6221304;28;20426;-73
2020/12/27 11:49:45;;;;;;;3.42;1.52;;;;;;;3.60;76.14;98456.72;6205140;28;20054;-73
2020/12/27 11:52:47;;;;;;;4.55;1.85;;;;;;;3.61;75.99;98445.41;6212623;28;20050;-72
2020/12/27 11:55:48;;;;;;;2.17;1.38;;;;;;;3.61;76.46;98440.22;6221643;28;20499;-74
2020/12/27 11:58:49;;;;;;;4.57;1.70;;;;;;;3.58;76.76;98417.84;6225804;28;20057;-72
2020/12/27 12:01:49;;;;;;;3.00;1.55;;;;;;;3.48;76.23;98404.59;6226127;28;20046;-72
2020/12/27 12:04:50;;;;;;;5.05;1.50;;;;;;;3.49;76.03;98413.22;6226080;28;20046;-73
2020/12/27 12:07:52;;;;;;;3.38;1.60;;;;;;;3.59;76.31;98388.38;6225764;28;20045;-71
2020/12/27 12:10:53;;;;;;;5.90;1.77;;;;;;;3.59;76.18;98388.38;6202940;28;20054;-73
2020/12/27 12:13:54;;;;;;;3.13;1.85;;;;;;;3.65;76.31;98369.81;6201590;28;20064;-72
2020/12/27 12:16:55;;;;;;;5.50;1.70;;;;;;;3.47;76.03;98377.00;6200987;28;20518;-73
2020/12/27 12:19:56;;;;;;;3.72;1.77;;;;;;;3.57;75.75;98366.84;6201103;28;20533;-74
2020/12/27 12:22:57;;;;;;;3.15;1.50;;;;;;;3.52;76.51;98354.16;6201373;28;20050;-75
2020/12/27 12:25:58;;;;;;;6.35;1.55;;;;;;;3.64;76.17;98356.94;6200994;28;20050;-72
2020/12/27 12:29:00;;;;;;;3.40;1.35;;;;;;;3.60;75.74;98345.06;6200750;28;20053;-73
2020/12/27 12:32:01;;;;;;;4.75;1.48;;;;;;;3.50;76.88;98344.81;6204060;28;20495;-72
2020/12/27 12:35:02;;;;;;;3.30;1.52;;;;;;;3.54;77.06;98341.94;6225616;28;20049;-72
2020/12/27 12:38:04;;;;;;;3.78;1.88;;;;;;;3.58;75.68;98321.78;6225229;28;20050;-72
2020/12/27 12:41:10;;;;;;;4.32;1.80;;;;;;;3.55;76.40;98322.00;6225035;28;20108;-72
2020/12/27 12:44:11;;;;;;;3.30;1.67;;;;;;;3.55;76.95;98316.78;6225243;28;20412;-72
2020/12/27 12:47:12;;;;;;;2.63;1.52;;;;;;;3.60;75.58;98306.94;6224977;28;20050;-71
2020/12/27 12:50:13;;;;;;;2.75;1.50;;;;;;;3.64;75.76;98308.41;6224607;28;20096;-72
2020/12/27 12:53:15;;;;;;;3.35;1.70;;;;;;;3.72;75.11;98292.31;6225276;28;20704;-71
2020/12/27 12:56:16;;;;;;;2.50;1.50;;;;;;;3.66;76.59;98287.53;6224604;28;20045;-72
2020/12/27 12:59:16;;;;;;;4.57;1.23;;;;;;;3.64;76.45;98292.00;6224696;28;20046;-71
2020/12/27 13:02:17;;;;;;;2.47;1.48;;;;;;;3.74;76.18;98283.50;6223506;28;20045;-70
2020/12/27 13:05:18;;;;;;;1.63;1.20;;;;;;;3.72;76.41;98284.53;6224982;28;20054;-71
2020/12/27 13:08:20;;;;;;;4.13;1.42;;;;;;;3.78;76.42;98274.59;6224452;28;20053;-71
2020/12/27 13:11:21;;;;;;;2.17;1.10;;;;;;;3.76;76.50;98268.63;6224248;28;20045;-75
2020/12/27 13:14:22;;;;;;;1.95;1.40;;;;;;;3.75;76.13;98266.97;6220887;28;20054;-72
2020/12/27 13:17:23;;;;;;;2.33;1.20;;;;;;;3.76;76.22;98254.81;6218451;28;20050;-73
2020/12/27 13:20:24;;;;;;;2.17;1.27;;;;;;;3.70;76.11;98250.03;6234531;28;20049;-73
2020/12/27 13:23:28;;;;;;;3.90;1.25;;;;;;;3.85;76.75;98241.22;6240453;28;20053;-71
2020/12/27 13:26:29;;;;;;;2.25;1.20;;;;;;;3.78;76.98;98240.00;6247209;28;20045;-72
2020/12/27 13:29:29;;;;;;;2.38;1.15;;;;;;;3.75;77.70;98232.38;6223671;28;20494;-72
2020/12/27 13:32:30;;;;;;;2.17;1.20;;;;;;;3.78;76.73;98222.63;6224040;28;20053;-72
2020/12/27 13:35:31;;;;;;;3.42;1.35;;;;;;;3.80;77.42;98219.91;6221533;28;20048;-72
2020/12/27 13:38:33;;;;;;;1.58;1.10;;;;;;;3.92;77.64;98211.31;6210525;28;20057;-72
2020/12/27 13:41:35;;;;;;;1.92;1.38;;;;;;;3.78;78.24;98196.66;6211615;28;20111;-72
2020/12/27 13:44:36;;;;;;;4.07;1.35;;;;;;;3.89;77.65;98187.31;6216283;28;20152;-72
2020/12/27 13:47:37;;;;;;;2.45;1.40;;;;;;;3.97;78.47;98190.22;6209396;28;20046;-71
2020/12/27 13:50:37;;;;;;;1.85;1.15;;;;;;;3.87;78.88;98181.41;6209835;28;20050;-71
2020/12/27 13:53:39;;;;;;;2.30;1.20;;;;;;;3.97;78.47;98172.03;6209813;28;20061;-72
2020/12/27 13:56:40;;;;;;;2.28;1.20;;;;;;;3.87;77.66;98166.63;6209361;28;20053;-74
2020/12/27 13:59:41;;;;;;;2.63;1.17;;;;;;;3.92;78.09;98156.75;6209819;28;20060;-70
2020/12/27 14:02:41;;;;;;;2.72;1.45;;;;;;;3.87;78.45;98156.25;6223324;28;20494;-74
2020/12/27 14:05:42;;;;;;;3.15;1.50;;;;;;;3.87;78.44;98158.84;6223987;28;20050;-73
2020/12/27 14:08:44;;;;;;;1.95;1.27;;;;;;;4.02;78.34;98146.56;6222288;28;20415;-72
2020/12/27 14:11:45;;;;;;;1.42;1.33;;;;;;;3.96;78.97;98154.78;6223042;28;20054;-72
2020/12/27 14:14:48;;;;;;;3.53;1.10;;;;;;;3.85;79.25;98134.72;6223146;28;20049;-72
2020/12/27 14:17:48;;;;;;;1.83;1.00;;;;;;;3.86;80.47;98144.19;6222622;28;20054;-72
2020/12/27 14:20:49;;;;;;;2.20;1.30;;;;;;;3.90;80.40;98147.41;6222677;28;20076;-71
2020/12/27 14:23:52;;;;;;;2.42;1.42;;;;;;;3.80;80.30;98131.59;6222905;28;20108;-72
2020/12/27 14:26:53;;;;;;;1.85;1.05;;;;;;;3.85;80.39;98120.91;6222683;28;20060;-72
2020/12/27 14:29:54;;;;;;;5.63;1.52;;;;;;;3.75;81.34;98116.34;6221706;28;20050;-72